Time;durP1;ratioP1;P1;durP2;ratioP2;P2;SDS_P1;SDS_P2;PMS_P1;PMS_P2;Temp;Humidity;BMP_temperature;BMP_pressure;BME280_temperature;BME280_humidity;BME280_pressure;Samples;Min_cycle;Max_cycle;Signal;HPM_P1;HPM_P2
2023/09/03 00:00:46;;;;;;;4.63;3.35;;;19.60;88.10;;;;;;5013049;28;20068;-56
2023/09/03 00:03:14;;;;;;;5.07;3.30;;;19.60;87.80;;;21.37;60.15;98265.84;5011993;28;20058;-57
2023/09/03 00:05:53;;;;;;;4.80;3.15;;;19.60;87.80;;;21.36;60.05;98254.16;5020041;28;20046;-56
2023/09/03 00:08:22;;;;;;;4.35;3.28;;;19.60;88.40;;;21.36;60.07;98259.59;5011734;28;20069;-57
2023/09/03 00:10:53;;;;;;;3.90;3.20;;;19.60;88.00;;;21.35;60.54;98263.34;5011396;28;20053;-56
2023/09/03 00:13:21;;;;;;;6.43;3.75;;;19.60;88.90;;;21.33;60.18;98262.75;5012966;28;20042;-57
2023/09/03 00:15:49;;;;;;;4.43;3.38;;;19.60;88.60;;;21.32;60.60;98266.47;5019888;28;20053;-57
2023/09/03 00:18:16;;;;;;;4.88;3.40;;;19.60;89.80;;;21.31;60.41;98270.25;5013016;28;20045;-57
2023/09/03 00:21:03;;;;;;;3.85;3.28;;;19.50;89.80;;;21.28;60.53;98269.84;5011057;28;20053;-57
2023/09/03 00:23:31;;;;;;;4.72;3.20;;;19.50;90.20;;;21.27;60.52;98271.72;5012617;28;20042;-57
2023/09/03 00:26:01;;;;;;;4.30;3.08;;;19.50;90.20;;;21.24;60.95;98272.16;5012845;28;20054;-57
2023/09/03 00:28:30;;;;;;;7.82;3.63;;;19.40;90.50;;;21.23;60.89;98265.91;5011694;28;20038;-62
2023/09/03 00:31:08;;;;;;;9.05;3.35;;;19.50;90.40;;;21.23;61.05;98265.09;5011855;28;20069;-62
2023/09/03 00:33:37;;;;;;;4.53;3.10;;;19.50;90.30;;;21.23;61.02;98270.50;4995019;28;20061;-63
2023/09/03 00:36:08;;;;;;;4.85;3.08;;;19.50;89.70;;;21.23;60.74;98273.22;5019650;28;20050;-63
2023/09/03 00:38:36;;;;;;;3.78;3.08;;;19.50;89.50;;;21.20;60.96;98277.16;5011242;28;20046;-62
2023/09/03 00:41:04;;;;;;;3.72;2.90;;;19.50;89.60;;;21.18;61.13;98290.06;5012122;28;20046;-63
2023/09/03 00:43:33;;;;;;;3.53;3.17;;;19.40;90.20;;;21.15;60.85;98292.38;5011962;28;20490;-63
2023/09/03 00:46:05;;;;;;;4.07;3.50;;;19.40;90.50;;;21.13;61.33;98286.34;5018365;28;20053;-62
2023/09/03 00:48:33;;;;;;;3.65;2.95;;;19.40;90.60;;;21.11;60.84;98281.16;5003548;28;20046;-62
2023/09/03 00:51:06;;;;;;;5.72;3.45;;;19.40;90.60;;;21.08;61.41;98272.63;5009897;28;20054;-62
2023/09/03 00:53:36;;;;;;;4.53;3.22;;;19.30;91.20;;;21.04;61.33;98274.94;5010819;28;20058;-63
2023/09/03 00:56:06;;;;;;;8.75;3.17;;;19.20;91.50;;;21.03;61.36;98278.66;5002738;28;20050;-62
2023/09/03 00:58:36;;;;;;;5.90;2.97;;;19.20;91.60;;;21.00;61.16;98276.41;5010935;28;20038;-62
2023/09/03 01:01:04;;;;;;;4.55;3.08;;;19.20;91.80;;;20.98;61.57;98278.50;5012490;28;20049;-62
2023/09/03 01:03:35;;;;;;;3.60;2.50;;;19.20;91.90;;;20.95;61.39;98277.03;5010773;28;20077;-62
2023/09/03 01:06:06;;;;;;;2.97;2.67;;;19.20;91.90;;;20.94;61.25;98272.69;5018954;28;20050;-62
2023/09/03 01:08:35;;;;;;;5.68;2.92;;;19.20;91.50;;;20.94;61.40;98274.56;5027027;28;20046;-62
2023/09/03 01:11:53;;;;;;;4.45;2.78;;;19.10;91.20;;;20.89;61.50;98282.47;5064360;27;20387;-62
2023/09/03 01:14:51;;;;;;;4.03;2.97;;;19.20;91.40;;;20.93;61.42;98283.72;5037876;28;20037;-62
2023/09/03 01:17:56;;;;;;;5.75;3.50;;;19.20;91.20;;;20.93;61.50;98289.94;5043486;28;20119;-62
2023/09/03 01:20:31;;;;;;;4.55;2.95;;;19.20;91.00;;;20.94;61.20;98291.63;5059506;28;20045;-62
2023/09/03 01:23:27;;;;;;;3.80;2.50;;;19.20;90.90;;;20.91;61.29;98294.75;5061410;28;20068;-62
2023/09/03 01:26:42;;;;;;;4.68;3.15;;;19.10;90.50;;;20.87;61.06;98304.31;5050668;28;20057;-63
2023/09/03 01:29:13;;;;;;;4.75;3.15;;;19.10;90.80;;;20.89;61.16;98299.53;5049401;28;20057;-63
2023/09/03 01:31:43;;;;;;;5.25;2.75;;;19.10;90.70;;;20.88;61.05;98305.16;5034651;28;20048;-62
2023/09/03 01:34:12;;;;;;;5.60;2.97;;;19.10;90.60;;;20.87;61.31;98306.22;5042583;28;20045;-62
2023/09/03 01:36:41;;;;;;;3.55;3.00;;;19.10;90.40;;;20.85;61.45;98307.25;5042934;28;20045;-63
2023/09/03 01:39:09;;;;;;;6.75;2.80;;;19.10;90.30;;;20.84;61.41;98311.00;5042686;28;20049;-63
2023/09/03 01:41:38;;;;;;;3.33;3.00;;;19.20;90.50;;;20.83;61.44;98322.84;5035665;28;20044;-63
2023/09/03 01:44:06;;;;;;;4.65;3.72;;;19.10;90.70;;;20.83;61.30;98317.44;5039028;28;20041;-63
2023/09/03 01:46:50;;;;;;;4.82;3.67;;;19.10;90.80;;;20.80;61.71;98315.19;5022531;28;20421;-63
2023/09/03 01:49:24;;;;;;;4.15;3.25;;;19.10;91.20;;;20.80;61.34;98319.72;5041825;28;20048;-63
2023/09/03 01:52:38;;;;;;;4.22;3.60;;;19.10;91.20;;;20.76;61.68;98335.59;5033666;28;20101;-63
2023/09/03 01:55:10;;;;;;;4.47;3.80;;;19.10;91.60;;;20.80;61.60;98335.97;5033857;28;20093;-63
2023/09/03 01:57:46;;;;;;;4.70;3.53;;;19.10;91.60;;;20.78;61.91;98332.66;5034034;28;20415;-63
2023/09/03 02:00:18;;;;;;;5.90;3.65;;;19.00;91.50;;;20.76;61.92;98338.28;5034145;28;20051;-63
2023/09/03 02:02:48;;;;;;;4.28;3.63;;;19.00;91.70;;;20.72;61.82;98336.19;5034731;28;20049;-63
2023/09/03 02:05:17;;;;;;;4.07;3.67;;;19.00;92.30;;;20.68;61.93;98327.66;5030888;28;20045;-63
2023/09/03 02:07:45;;;;;;;4.85;4.22;;;18.90;92.60;;;20.65;62.02;98334.34;5022421;28;20052;-63
2023/09/03 02:10:12;;;;;;;4.22;3.55;;;18.90;92.80;;;20.63;62.12;98338.28;5032943;28;20052;-63
2023/09/03 02:12:40;;;;;;;6.22;4.40;;;18.90;93.30;;;20.62;62.36;98340.16;5033327;28;20496;-63
2023/09/03 02:15:09;;;;;;;4.95;3.58;;;18.90;93.60;;;20.61;62.31;98334.97;5023289;28;20041;-63
2023/09/03 02:17:37;;;;;;;6.28;4.43;;;18.90;93.60;;;20.60;62.55;98344.94;5031607;28;20040;-63
2023/09/03 02:20:06;;;;;;;5.63;4.70;;;18.90;93.10;;;20.59;62.28;98334.31;5040670;28;20072;-63
2023/09/03 02:22:34;;;;;;;4.00;3.42;;;18.90;93.20;;;20.56;62.36;98346.38;5035263;28;20527;-63
2023/09/03 02:25:02;;;;;;;5.60;4.05;;;18.80;93.20;;;20.56;62.30;98342.84;5020292;28;20041;-63
2023/09/03 02:27:30;;;;;;;4.80;3.72;;;18.80;93.00;;;20.52;62.64;98345.13;5025276;28;20416;-63
2023/09/03 02:29:57;;;;;;;4.63;3.72;;;18.70;93.60;;;20.45;62.61;98344.28;5020347;28;20046;-63
2023/09/03 02:32:25;;;;;;;5.78;4.18;;;18.70;94.50;;;20.42;62.99;98344.72;5037017;28;20042;-63
2023/09/03 02:34:53;;;;;;;5.60;3.63;;;18.60;94.90;;;20.41;62.72;98341.19;5020922;28;20049;-63
2023/09/03 02:37:21;;;;;;;4.75;3.90;;;18.60;94.60;;;20.39;62.66;98347.81;5022232;28;20072;-63
2023/09/03 02:39:48;;;;;;;4.63;3.67;;;18.60;94.40;;;20.34;62.80;98348.44;5019343;28;20069;-62
2023/09/03 02:42:16;;;;;;;5.68;3.92;;;18.50;95.30;;;20.31;63.30;98342.63;5021415;28;20045;-63
2023/09/03 02:44:43;;;;;;;5.00;3.90;;;18.50;95.60;;;20.28;62.98;98341.16;5020865;28;20049;-63
2023/09/03 02:47:11;;;;;;;5.28;3.83;;;18.40;95.80;;;20.26;63.23;98337.84;5001433;28;20049;-63
2023/09/03 02:49:38;;;;;;;4.68;4.20;;;18.40;95.60;;;20.24;63.06;98342.63;5026173;28;20051;-63
2023/09/03 02:52:06;;;;;;;4.53;3.63;;;18.40;95.70;;;20.22;63.21;98342.81;5019489;28;20050;-63
2023/09/03 02:54:35;;;;;;;5.80;4.70;;;18.40;95.90;;;20.21;62.98;98354.66;5023983;28;20073;-63
2023/09/03 02:57:02;;;;;;;6.80;4.55;;;18.40;95.60;;;20.20;63.39;98354.84;5019262;28;20465;-62
2023/09/03 02:59:31;;;;;;;5.55;4.00;;;18.40;95.30;;;20.17;63.45;98356.13;5004110;28;20041;-62
2023/09/03 03:01:59;;;;;;;7.07;4.00;;;18.40;95.90;;;20.15;63.54;98362.78;5020462;28;20041;-62
2023/09/03 03:04:27;;;;;;;5.35;4.05;;;18.30;96.30;;;20.14;63.10;98348.44;5015920;28;20046;-62
2023/09/03 03:06:54;;;;;;;5.68;4.25;;;18.30;95.90;;;20.14;63.10;98347.56;5018147;28;20054;-62
2023/09/03 03:09:23;;;;;;;5.88;4.50;;;18.40;95.60;;;20.11;63.13;98345.31;5027969;28;20045;-63
2023/09/03 03:11:51;;;;;;;5.60;4.13;;;18.30;95.80;;;20.09;63.17;98341.97;5029093;28;20049;-63
2023/09/03 03:14:19;;;;;;;5.10;4.30;;;18.30;96.30;;;20.08;63.52;98362.75;5016469;28;20045;-63
2023/09/03 03:16:47;;;;;;;4.65;4.13;;;18.30;95.90;;;20.06;63.16;98352.16;5027069;28;20523;-63
2023/09/03 03:19:17;;;;;;;4.03;3.35;;;18.30;95.90;;;20.04;63.42;98356.09;5019591;28;20037;-63
2023/09/03 03:21:45;;;;;;;5.18;4.07;;;18.30;95.80;;;20.00;63.57;98344.03;5020376;28;20050;-63
2023/09/03 03:24:14;;;;;;;5.38;4.10;;;18.20;96.30;;;20.00;63.77;98355.66;5018173;28;20393;-63
2023/09/03 03:26:42;;;;;;;5.70;3.88;;;18.20;96.90;;;20.00;63.45;98349.44;5033263;28;20042;-63
2023/09/03 03:29:18;;;;;;;6.47;4.28;;;18.20;96.80;;;19.99;63.37;98356.72;5028712;28;20045;-63
2023/09/03 03:31:51;;;;;;;4.63;3.90;;;18.30;96.30;;;20.01;63.48;98360.03;5003556;28;20045;-63
2023/09/03 03:34:20;;;;;;;6.70;3.75;;;18.30;95.70;;;20.01;63.30;98357.34;5019945;28;20516;-63
2023/09/03 03:36:49;;;;;;;5.40;3.75;;;18.30;95.70;;;19.99;63.31;98364.00;5020477;28;20038;-63
2023/09/03 03:39:17;;;;;;;5.45;3.53;;;18.20;96.00;;;19.98;63.75;98365.00;5042976;28;20049;-63
2023/09/03 03:41:45;;;;;;;4.60;3.70;;;18.20;96.30;;;19.97;63.88;98371.47;5020572;28;20056;-62
2023/09/03 03:44:17;;;;;;;5.75;4.38;;;18.20;96.20;;;19.97;63.75;98375.00;5025362;27;20052;-63
2023/09/03 03:46:44;;;;;;;7.45;3.53;;;18.30;96.20;;;19.98;63.84;98370.41;5017490;28;20046;-63
2023/09/03 03:49:13;;;;;;;5.28;3.72;;;18.30;95.90;;;19.98;63.88;98365.00;5019395;28;20533;-63
2023/09/03 03:51:40;;;;;;;4.68;3.80;;;18.30;95.60;;;19.95;63.43;98374.38;5018701;28;20049;-63
2023/09/03 03:54:08;;;;;;;6.03;4.10;;;18.20;95.90;;;19.95;63.41;98384.31;5018802;28;20412;-62
2023/09/03 03:56:36;;;;;;;5.35;4.10;;;18.20;95.70;;;19.93;63.52;98370.19;5006338;28;20045;-63
2023/09/03 03:59:05;;;;;;;5.38;4.20;;;18.20;96.10;;;19.90;63.90;98376.84;5020606;28;20050;-63
2023/09/03 04:01:33;;;;;;;6.45;4.68;;;18.10;96.40;;;19.92;63.92;98379.34;5025284;28;20050;-63
2023/09/03 04:04:00;;;;;;;5.57;4.80;;;18.10;96.40;;;19.90;63.79;98373.31;5020617;28;20061;-63
2023/09/03 04:06:31;;;;;;;4.50;3.78;;;18.10;96.50;;;19.88;63.63;98384.31;5017161;28;20049;-63
2023/09/03 04:08:59;;;;;;;4.35;3.53;;;18.10;96.70;;;19.89;63.67;98386.00;5015892;28;20417;-63
2023/09/03 04:11:27;;;;;;;7.03;3.67;;;18.20;96.00;;;19.88;63.45;98381.63;5017258;28;20038;-63
2023/09/03 04:13:54;;;;;;;5.82;4.30;;;18.20;95.70;;;19.88;63.50;98388.91;5032926;28;20046;-63
2023/09/03 04:16:22;;;;;;;4.38;3.45;;;18.10;95.70;;;19.85;63.72;98388.28;5034386;28;20038;-63
2023/09/03 04:18:51;;;;;;;5.43;4.20;;;18.10;96.00;;;19.85;63.93;98388.28;5018714;28;20046;-63
2023/09/03 04:21:19;;;;;;;4.65;3.90;;;18.10;96.30;;;19.85;63.47;98395.53;5025407;27;20054;-63
2023/09/03 04:23:47;;;;;;;3.47;3.03;;;18.10;95.90;;;19.84;63.63;98394.69;4998866;28;20132;-63
2023/09/03 04:26:15;;;;;;;6.00;3.85;;;18.10;95.50;;;19.83;63.63;98395.75;5027136;28;20531;-63
2023/09/03 04:28:53;;;;;;;5.07;3.88;;;18.10;95.70;;;19.82;63.53;98398.66;5035248;28;20045;-63
2023/09/03 04:31:20;;;;;;;3.70;3.00;;;18.00;95.80;;;19.81;63.69;98396.97;5017146;28;20416;-63
2023/09/03 04:33:48;;;;;;;3.47;2.83;;;18.00;95.90;;;19.80;63.54;98398.00;5014588;28;20045;-63
2023/09/03 04:36:17;;;;;;;3.88;3.33;;;18.10;95.70;;;19.81;63.65;98400.53;5060688;27;20045;-63
2023/09/03 04:38:45;;;;;;;4.30;3.45;;;18.10;95.40;;;19.81;63.75;98407.78;5022547;28;20046;-63
2023/09/03 04:41:16;;;;;;;4.82;4.03;;;18.10;95.50;;;19.79;63.71;98410.69;5033820;28;20449;-63
2023/09/03 04:43:48;;;;;;;4.00;3.47;;;18.00;95.30;;;19.77;63.61;98410.03;5017583;28;20045;-63
2023/09/03 04:46:21;;;;;;;5.32;3.45;;;18.00;95.50;;;19.77;63.70;98417.31;5014890;28;20061;-63
2023/09/03 04:48:49;;;;;;;4.93;3.65;;;18.00;95.80;;;19.74;63.51;98413.16;5006789;28;20068;-63
2023/09/03 04:51:17;;;;;;;4.07;3.17;;;17.90;96.00;;;19.73;63.68;98411.47;5050751;28;20045;-63
2023/09/03 04:53:46;;;;;;;4.63;3.83;;;18.00;96.10;;;19.74;63.88;98415.03;5017259;28;20049;-63
2023/09/03 04:56:14;;;;;;;8.35;4.03;;;18.00;96.10;;;19.75;63.93;98425.63;5017842;28;20490;-62
2023/09/03 04:58:44;;;;;;;4.68;3.85;;;18.00;96.30;;;19.77;64.01;98422.72;5017644;28;20420;-62
2023/09/03 05:01:16;;;;;;;5.20;4.10;;;18.10;96.40;;;19.77;63.99;98426.25;5026914;28;20046;-63
2023/09/03 05:03:47;;;;;;;5.88;4.18;;;18.10;96.60;;;19.78;63.99;98427.09;5016261;28;20413;-63
2023/09/03 05:06:18;;;;;;;5.60;4.45;;;18.00;96.70;;;19.80;64.15;98435.84;5059171;27;20417;-63
2023/09/03 05:08:49;;;;;;;4.65;3.60;;;18.10;97.70;;;19.80;64.22;98436.66;5004730;28;20045;-62
2023/09/03 05:11:19;;;;;;;5.90;4.15;;;18.10;97.70;;;19.82;64.27;98442.69;5039147;28;20046;-63
2023/09/03 05:13:48;;;;;;;6.18;4.30;;;18.10;97.50;;;19.84;64.18;98442.50;5034289;28;20045;-63
2023/09/03 05:16:17;;;;;;;5.55;4.28;;;18.20;97.30;;;19.86;64.45;98462.03;5032896;28;20052;-62
2023/09/03 05:18:45;;;;;;;7.05;4.57;;;18.20;97.20;;;19.87;64.58;98461.00;5032619;28;20391;-63
2023/09/03 05:21:14;;;;;;;6.05;4.32;;;18.20;97.60;;;19.90;64.38;98470.59;5016124;28;20065;-63
2023/09/03 05:23:41;;;;;;;4.47;3.47;;;18.20;97.50;;;19.90;64.62;98457.91;5020850;28;20052;-63
2023/09/03 05:26:09;;;;;;;6.28;4.55;;;18.20;97.30;;;19.94;64.50;98463.75;5019469;28;20061;-63
2023/09/03 05:28:40;;;;;;;6.47;4.47;;;18.30;97.20;;;19.95;64.61;98466.25;5018342;28;20548;-63
2023/09/03 05:31:10;;;;;;;9.43;5.13;;;18.30;97.20;;;19.98;64.79;98465.00;5001428;28;20057;-63
2023/09/03 05:33:39;;;;;;;7.05;4.45;;;18.30;97.70;;;20.01;64.71;98470.84;5019240;28;20527;-62
2023/09/03 05:36:07;;;;;;;6.75;4.90;;;18.40;98.00;;;20.05;64.92;98465.88;5003022;28;20068;-63
2023/09/03 05:38:35;;;;;;;6.32;4.25;;;18.40;97.80;;;20.09;64.75;98459.03;5001975;28;20041;-64
2023/09/03 05:41:03;;;;;;;7.68;4.50;;;18.50;98.20;;;20.13;64.78;98456.75;5029722;28;20052;-65
2023/09/03 05:43:31;;;;;;;6.18;5.15;;;18.50;98.00;;;20.16;65.06;98456.31;5031128;28;20083;-65
2023/09/03 05:46:00;;;;;;;6.07;4.95;;;18.50;97.90;;;20.17;65.14;98448.03;5022113;28;20046;-65
2023/09/03 05:48:28;;;;;;;7.45;5.65;;;18.50;98.30;;;20.19;65.24;98451.34;5031439;28;20052;-65
2023/09/03 05:51:03;;;;;;;12.05;6.38;;;18.60;98.60;;;20.19;65.46;98445.94;5021382;28;20069;-65
2023/09/03 05:53:33;;;;;;;8.10;6.38;;;18.60;99.50;;;20.22;65.57;98453.66;5017262;28;20049;-65
2023/09/03 05:56:06;;;;;;;7.50;6.70;;;18.60;99.90;;;20.23;65.74;98452.63;5018001;28;20492;-65
2023/09/03 05:58:36;;;;;;;8.60;6.22;;;18.60;99.90;;;20.24;65.80;98448.06;5021779;28;20038;-65
2023/09/03 06:01:08;;;;;;;6.30;5.53;;;18.60;99.90;;;20.29;65.99;98450.13;5021125;28;20057;-65
2023/09/03 06:03:39;;;;;;;7.82;6.75;;;18.70;99.90;;;20.33;65.82;98456.81;5009654;28;20042;-65
2023/09/03 06:06:11;;;;;;;6.13;5.38;;;18.70;99.90;;;20.36;65.90;98453.69;5019263;28;20046;-65
2023/09/03 06:08:41;;;;;;;6.47;5.68;;;18.70;99.90;;;20.41;66.03;98454.75;5001442;28;20049;-65
2023/09/03 06:11:09;;;;;;;6.88;5.53;;;18.80;99.90;;;20.45;65.91;98457.84;5041985;28;20413;-65
2023/09/03 06:13:37;;;;;;;6.07;5.03;;;18.90;99.90;;;20.51;66.02;98467.03;5018962;28;20490;-66
2023/09/03 06:16:04;;;;;;;7.38;5.47;;;19.00;99.90;;;20.56;66.34;98470.78;5019674;28;20045;-65
2023/09/03 06:18:32;;;;;;;6.43;5.03;;;19.10;99.90;;;20.60;65.92;98477.47;5021931;28;20049;-65
2023/09/03 06:21:00;;;;;;;5.57;4.97;;;19.10;99.90;;;20.68;66.38;98481.03;5021030;28;20497;-65
2023/09/03 06:23:28;;;;;;;6.28;5.07;;;19.30;99.80;;;20.72;66.09;98485.00;5018567;28;20068;-65
2023/09/03 06:25:56;;;;;;;6.03;5.00;;;19.30;99.50;;;20.76;66.00;98481.69;5019575;28;20042;-65
2023/09/03 06:28:26;;;;;;;5.75;5.15;;;19.40;99.50;;;20.79;66.13;98494.78;5020348;28;20050;-65
2023/09/03 06:30:56;;;;;;;6.63;5.78;;;19.40;99.00;;;20.82;66.03;98499.81;5022056;28;20527;-65
2023/09/03 06:33:24;;;;;;;6.75;5.72;;;19.40;99.00;;;20.87;66.33;98504.59;5021163;27;20060;-65
2023/09/03 06:35:52;;;;;;;7.70;5.63;;;19.40;99.00;;;20.90;65.74;98509.59;5018656;28;20053;-65
2023/09/03 06:38:20;;;;;;;8.90;5.70;;;19.50;99.30;;;20.93;66.03;98501.03;5019370;28;20307;-65
2023/09/03 06:40:49;;;;;;;6.80;5.22;;;19.50;99.30;;;20.95;66.32;98507.06;5020644;28;20416;-66
2023/09/03 06:43:17;;;;;;;7.30;5.30;;;19.50;99.40;;;20.98;65.78;98503.97;5017539;28;20417;-65
2023/09/03 06:45:46;;;;;;;8.82;7.10;;;19.50;99.40;;;21.02;66.24;98512.50;5021233;28;20044;-65
2023/09/03 06:48:14;;;;;;;7.28;5.50;;;19.50;99.50;;;21.06;66.03;98518.34;5018186;28;20064;-66
2023/09/03 06:50:42;;;;;;;10.35;6.18;;;19.60;99.20;;;21.09;65.64;98521.44;5016181;28;20057;-66
2023/09/03 06:53:10;;;;;;;7.43;6.22;;;19.60;98.90;;;21.12;66.04;98521.03;5017362;28;20542;-65
2023/09/03 06:55:38;;;;;;;8.40;6.00;;;19.60;98.60;;;21.12;66.01;98526.47;5020242;28;20042;-66
2023/09/03 06:58:06;;;;;;;6.22;5.63;;;19.60;99.10;;;21.14;65.96;98526.25;5019831;28;20467;-65
2023/09/03 07:00:34;;;;;;;7.68;6.15;;;19.60;99.40;;;21.16;66.09;98533.13;5017765;28;20073;-65
2023/09/03 07:03:02;;;;;;;7.35;5.95;;;19.70;99.60;;;21.22;66.00;98545.00;5015005;28;20054;-66
2023/09/03 07:05:30;;;;;;;8.80;6.43;;;19.70;99.50;;;21.25;66.00;98533.78;5032368;28;20064;-64
2023/09/03 07:07:57;;;;;;;6.70;5.90;;;19.80;99.30;;;21.29;66.11;98547.72;5019308;28;20420;-64
2023/09/03 07:10:25;;;;;;;6.65;5.93;;;19.80;99.20;;;21.32;65.84;98540.00;5018721;28;20421;-64
2023/09/03 07:12:53;;;;;;;7.03;5.13;;;19.90;99.40;;;21.37;65.85;98536.69;5015468;28;20469;-64
2023/09/03 07:15:20;;;;;;;8.30;4.80;;;19.90;99.10;;;21.41;66.16;98540.63;5033368;28;20054;-65
2023/09/03 07:17:48;;;;;;;6.32;4.88;;;19.90;98.60;;;21.42;66.02;98540.44;5016610;28;20042;-65
2023/09/03 07:20:16;;;;;;;7.18;5.32;;;19.90;98.70;;;21.48;65.93;98543.34;5024583;28;20153;-64
2023/09/03 07:22:43;;;;;;;9.30;5.95;;;20.00;98.20;;;21.53;65.44;98555.22;5016596;28;20069;-65
2023/09/03 07:25:11;;;;;;;11.25;5.63;;;20.10;98.10;;;21.57;65.95;98556.47;5017275;28;20045;-65
2023/09/03 07:27:39;;;;;;;6.25;5.10;;;20.10;98.10;;;21.62;65.65;98555.88;5019047;28;20086;-65
2023/09/03 07:30:11;;;;;;;6.32;5.32;;;20.20;97.60;;;21.68;65.36;98571.28;5020231;28;20049;-65
2023/09/03 07:32:39;;;;;;;7.90;6.30;;;20.30;97.50;;;21.73;65.67;98573.34;5015868;28;20304;-65
2023/09/03 07:35:08;;;;;;;7.85;5.75;;;20.40;97.50;;;21.76;65.95;98571.03;5016765;28;20440;-65
2023/09/03 07:37:35;;;;;;;7.25;5.85;;;20.40;97.20;;;21.77;66.00;98585.44;5019038;28;20488;-64
2023/09/03 07:40:04;;;;;;;6.15;5.43;;;20.50;96.80;;;21.77;66.17;98583.56;5019340;28;20520;-65
2023/09/03 07:42:31;;;;;;;6.82;5.63;;;20.50;97.10;;;21.79;65.69;98577.91;5018405;28;20049;-65
2023/09/03 07:44:59;;;;;;;6.43;5.03;;;20.50;97.20;;;21.82;66.02;98589.16;5016652;28;20377;-65
2023/09/03 07:47:26;;;;;;;6.38;5.32;;;20.50;97.10;;;21.85;66.02;98578.94;5013616;28;20057;-65
2023/09/03 07:49:54;;;;;;;7.47;5.75;;;20.60;97.10;;;21.85;65.88;98579.81;5035170;28;20045;-65
2023/09/03 07:52:22;;;;;;;6.15;5.43;;;20.60;96.80;;;21.86;65.88;98577.91;5019136;28;20538;-65
2023/09/03 07:54:49;;;;;;;6.57;5.72;;;20.60;97.00;;;21.90;65.91;98585.41;5016295;28;20072;-65
2023/09/03 07:57:17;;;;;;;7.40;5.93;;;20.60;96.80;;;21.94;66.01;98585.81;5016678;28;20059;-65
2023/09/03 07:59:44;;;;;;;6.80;5.85;;;20.60;96.90;;;21.98;65.56;98590.63;5019474;28;20519;-65
2023/09/03 08:02:12;;;;;;;6.43;5.75;;;20.60;96.60;;;22.00;65.72;98591.25;5019657;28;20495;-65
2023/09/03 08:04:42;;;;;;;6.82;5.63;;;20.70;96.50;;;22.05;65.82;98596.03;5015698;28;20053;-65
2023/09/03 08:07:10;;;;;;;7.32;5.90;;;20.70;96.40;;;22.06;65.38;98592.25;5014808;28;20046;-65
2023/09/03 08:09:38;;;;;;;8.32;6.13;;;20.80;96.00;;;22.10;65.43;98600.78;5018285;28;20053;-65
2023/09/03 08:12:06;;;;;;;7.25;6.55;;;20.80;96.00;;;22.13;65.57;98606.63;5019640;28;20421;-65
2023/09/03 08:14:34;;;;;;;6.40;5.30;;;20.80;95.70;;;22.15;65.29;98604.53;5017397;28;20477;-65
2023/09/03 08:17:01;;;;;;;7.88;5.60;;;20.90;95.70;;;22.18;65.31;98614.16;5016389;28;20046;-65
2023/09/03 08:19:29;;;;;;;5.97;5.40;;;20.90;95.80;;;22.20;65.27;98614.78;5016314;28;20065;-65
2023/09/03 08:21:57;;;;;;;8.85;5.63;;;20.90;95.50;;;22.25;65.18;98611.44;5019243;28;20805;-65
2023/09/03 08:24:27;;;;;;;8.07;6.18;;;21.00;95.10;;;22.28;65.36;98613.75;5018632;28;20057;-65
2023/09/03 08:26:55;;;;;;;9.55;5.50;;;21.00;95.10;;;22.31;65.11;98611.41;5004047;28;20053;-64
2023/09/03 08:29:22;;;;;;;7.75;5.38;;;21.00;94.90;;;22.32;65.15;98607.66;5019505;28;20054;-64
2023/09/03 08:31:50;;;;;;;6.28;5.60;;;21.10;94.80;;;22.37;65.06;98604.28;5024820;28;20049;-64
2023/09/03 08:34:18;;;;;;;6.50;4.97;;;21.20;94.30;;;22.41;64.90;98595.53;5016698;28;20050;-64
2023/09/03 08:36:45;;;;;;;6.18;5.00;;;21.20;93.80;;;22.48;64.87;98602.81;5019325;28;20405;-61
2023/09/03 08:39:13;;;;;;;6.57;4.72;;;21.20;93.40;;;22.50;64.43;98595.28;5019363;28;20037;-61
2023/09/03 08:41:41;;;;;;;5.15;4.25;;;21.30;92.40;;;22.53;64.55;98598.41;5032876;28;20404;-61
2023/09/03 08:44:36;;;;;;;5.45;4.30;;;21.40;92.00;;;22.58;64.41;98622.16;5015400;28;20500;-62
2023/09/03 08:47:09;;;;;;;4.93;3.20;;;21.50;90.80;;;22.64;63.24;98606.91;5012366;28;20053;-61
2023/09/03 08:49:39;;;;;;;5.65;3.60;;;21.50;88.50;;;22.67;63.25;98601.06;5017664;28;20523;-61
2023/09/03 08:52:08;;;;;;;3.80;3.45;;;21.40;88.30;;;22.72;63.06;98612.09;5012384;28;20050;-61
2023/09/03 08:54:37;;;;;;;5.85;3.55;;;21.50;89.10;;;22.77;62.82;98620.41;5017369;28;20042;-61
2023/09/03 08:57:05;;;;;;;6.55;3.88;;;21.60;88.50;;;22.85;62.93;98625.59;5015362;28;20423;-61
2023/09/03 08:59:33;;;;;;;4.70;3.38;;;21.70;88.70;;;22.93;62.74;98632.66;5017127;28;20037;-61
2023/09/03 09:02:01;;;;;;;3.78;3.20;;;21.80;88.40;;;23.03;62.50;98629.50;5019798;28;20053;-61
2023/09/03 09:04:30;;;;;;;3.80;2.85;;;21.90;88.00;;;23.12;62.44;98637.19;5018844;28;20049;-61
2023/09/03 09:06:59;;;;;;;3.50;2.40;;;22.00;87.30;;;23.19;62.01;98637.97;5016491;28;20432;-61
2023/09/03 09:09:30;;;;;;;3.90;2.22;;;22.10;86.80;;;23.28;61.51;98638.53;5016332;28;20057;-62
2023/09/03 09:12:36;;;;;;;4.78;2.63;;;22.20;84.70;;;23.33;61.28;98638.72;5015086;28;20050;-62
2023/09/03 09:15:05;;;;;;;3.88;2.30;;;22.30;82.00;;;23.45;60.96;98644.28;5031674;28;20052;-62
2023/09/03 09:17:40;;;;;;;5.00;2.55;;;22.40;84.00;;;23.51;60.75;98643.38;5016530;28;20082;-62
2023/09/03 09:20:12;;;;;;;3.80;2.83;;;22.50;82.70;;;23.56;60.52;98640.84;5018423;28;20107;-62
2023/09/03 09:22:49;;;;;;;3.35;2.75;;;22.50;83.00;;;23.59;60.12;98642.28;5016723;28;20492;-62
2023/09/03 09:25:25;;;;;;;3.63;2.95;;;22.60;82.10;;;23.66;60.57;98640.34;5016691;28;20057;-65
2023/09/03 09:27:56;;;;;;;3.50;2.63;;;22.60;82.10;;;23.71;60.23;98645.97;5017690;28;20049;-61
2023/09/03 09:30:25;;;;;;;2.85;2.58;;;22.70;82.50;;;23.73;59.94;98640.28;5018485;28;20046;-60
2023/09/03 09:33:06;;;;;;;5.22;2.60;;;22.70;82.30;;;23.76;59.79;98645.28;5028256;28;20053;-63
2023/09/03 09:35:35;;;;;;;4.18;2.50;;;22.70;79.80;;;23.78;59.28;98648.66;5010210;28;20072;-66
2023/09/03 09:38:04;;;;;;;3.40;3.10;;;22.70;81.00;;;23.78;58.89;98648.66;5021533;28;20041;-66
2023/09/03 09:40:34;;;;;;;3.92;2.50;;;22.70;80.40;;;23.80;59.02;98649.25;5021632;28;20441;-67
2023/09/03 09:43:07;;;;;;;4.38;2.55;;;22.70;80.60;;;23.82;58.51;98658.03;5026090;28;20057;-66
2023/09/03 09:45:49;;;;;;;2.70;2.10;;;22.80;79.50;;;23.84;58.52;98653.19;5018305;28;20504;-65
2023/09/03 09:48:17;;;;;;;3.05;2.33;;;22.80;77.90;;;23.90;58.16;98648.75;5021646;28;20527;-66
2023/09/03 09:50:48;;;;;;;5.40;1.58;;;22.80;78.80;;;23.93;56.77;98653.75;5021504;28;20045;-67
2023/09/03 09:53:23;;;;;;;3.67;1.70;;;22.80;76.40;;;23.96;56.85;98648.72;5015003;28;20390;-66
2023/09/03 09:56:17;;;;;;;2.47;1.75;;;22.90;76.50;;;23.97;57.13;98649.53;5020833;28;20041;-66
2023/09/03 09:58:45;;;;;;;2.35;1.50;;;22.90;74.50;;;24.01;55.76;98649.91;5019923;28;20067;-67
2023/09/03 10:01:13;;;;;;;2.03;1.52;;;22.90;74.70;;;23.97;55.25;98646.81;5029526;28;20045;-66
2023/09/03 10:03:42;;;;;;;2.08;1.50;;;22.80;73.00;;;23.95;55.33;98652.47;5021837;28;20492;-66
2023/09/03 10:06:12;;;;;;;2.10;1.42;;;22.90;74.00;;;23.99;55.49;98647.41;5018120;28;20053;-66
2023/09/03 10:08:41;;;;;;;1.50;1.40;;;22.90;74.00;;;24.04;55.05;98650.31;5001903;28;20482;-66
2023/09/03 10:11:08;;;;;;;2.03;1.58;;;23.00;73.80;;;24.08;55.27;98651.53;5021324;28;20042;-67
2023/09/03 10:13:39;;;;;;;1.80;1.60;;;23.00;73.80;;;24.12;55.29;98652.72;5022176;28;20513;-67
2023/09/03 10:16:09;;;;;;;2.75;1.98;;;23.00;74.00;;;24.17;55.57;98643.88;5026676;28;20053;-67
2023/09/03 10:18:43;;;;;;;2.63;1.65;;;23.10;74.20;;;24.21;55.33;98647.00;5019321;28;20423;-66
2023/09/03 10:21:16;;;;;;;1.60;1.50;;;23.10;74.10;;;24.24;55.20;98649.28;5017564;28;20049;-67
2023/09/03 10:23:49;;;;;;;;;;;23.20;73.70;;;24.29;55.86;98641.25;5019264;28;20416;-67
2023/09/03 10:26:28;;;;;;;1.70;1.60;;;23.20;70.70;;;24.35;54.66;98643.91;5022398;28;19928;-66
2023/09/03 10:29:04;;;;;;;2.22;1.65;;;23.20;71.80;;;24.36;54.39;98634.69;5018765;28;20057;-67
2023/09/03 10:31:33;;;;;;;2.67;1.60;;;23.20;72.30;;;24.38;54.01;98637.19;5017578;28;20050;-67
2023/09/03 10:34:01;;;;;;;2.13;1.30;;;23.20;71.60;;;24.40;53.47;98632.34;5019974;28;20052;-66